Abbott, Mississippi
Current Conditions -  °F | °C
As of 6:35 PM on Sunday 21 Dec 2014 (Local Time) from KSTF Reporting Station
Overcast Overcast  
Wind Chill: 46°   Ceiling: 1600
Heat Index: 46°   Visibility: 10mi
Dew Point: 43°   Wind: 0mph
Humidity: 87%   Direction: NA
Pressure: 30.04"   Gusts: NA
Location:  33.6681°N, 88.7618°W
Report Text: KSTF 220035Z AUTO 00000KT 10SM OVC016 08/06 A3004 RMK AO2
Loading
Personal Weather Stations






























Interactive Weather Map New forecast layout! Learn more

10-Day Weather Forecast

Advertisements
Track Severe Weather on mobile